Time;durP1;ratioP1;P1;durP2;ratioP2;P2;SDS_P1;SDS_P2;PMS_P1;PMS_P2;Temp;Humidity;BMP_temperature;BMP_pressure;BME280_temperature;BME280_humidity;BME280_pressure;Samples;Min_cycle;Max_cycle;Signal;HPM_P1;HPM_P2
2023/05/19 00:00:03;;;;;;;17.45;7.30;;;9.30;81.20;;;;;;6182842;22;93871;-76
2023/05/19 00:02:32;;;;;;;15.93;6.70;;;9.30;81.90;;;;;;6182701;22;94002;-76
2023/05/19 00:05:00;;;;;;;15.05;7.25;;;9.20;82.20;;;;;;6206879;22;97251;-76
2023/05/19 00:07:30;;;;;;;15.40;7.38;;;9.20;82.60;;;;;;6183098;22;92351;-76
2023/05/19 00:09:56;;;;;;;13.15;7.40;;;9.10;83.00;;;;;;6184329;22;92527;-77
2023/05/19 00:12:22;;;;;;;17.38;7.20;;;9.10;84.30;;;;;;6182956;22;93622;-75
2023/05/19 00:14:48;;;;;;;15.77;6.95;;;9.00;82.90;;;;;;6182983;22;93255;-76
2023/05/19 00:17:15;;;;;;;17.13;6.95;;;9.00;84.00;;;;;;6182063;22;92359;-76
2023/05/19 00:19:43;;;;;;;16.60;7.07;;;8.90;83.70;;;;;;6183868;22;91744;-76
2023/05/19 00:22:09;;;;;;;16.42;7.25;;;8.90;83.10;;;;;;6184070;22;93675;-76
2023/05/19 00:24:35;;;;;;;12.98;7.20;;;8.90;84.70;;;;;;6207030;22;95961;-76
2023/05/19 00:27:00;;;;;;;16.98;6.93;;;8.80;85.30;;;;;;6182561;22;93404;-76
2023/05/19 00:29:27;;;;;;;15.57;7.22;;;8.70;84.40;;;;;;6183387;22;92602;-76
2023/05/19 00:31:53;;;;;;;19.30;8.18;;;8.70;85.70;;;;;;6182880;22;93679;-76
2023/05/19 00:34:19;;;;;;;14.43;7.03;;;8.60;87.70;;;;;;6183064;22;93147;-76
2023/05/19 00:36:44;;;;;;;14.95;8.07;;;8.60;87.30;;;;;;6208057;22;92623;-76
2023/05/19 00:39:10;;;;;;;14.95;8.07;;;8.50;87.90;;;;;;6183201;22;92364;-76
2023/05/19 00:41:36;;;;;;;18.20;7.60;;;8.50;88.00;;;;;;6182737;22;93454;-76
2023/05/19 00:44:01;;;;;;;14.05;6.88;;;8.50;87.20;;;;;;6183294;22;93756;-76
2023/05/19 00:46:29;;;;;;;14.93;7.07;;;8.40;87.50;;;;;;6183464;22;92577;-76
2023/05/19 00:48:54;;;;;;;14.85;7.43;;;8.40;87.70;;;;;;6207983;22;92592;-76
2023/05/19 00:51:22;;;;;;;13.80;7.47;;;8.40;88.00;;;;;;6206257;22;97593;-76
2023/05/19 00:53:50;;;;;;;15.00;6.35;;;8.40;88.50;;;;;;6183102;22;93910;-76
2023/05/19 00:56:17;;;;;;;17.20;7.82;;;8.40;86.80;;;;;;6183320;22;92569;-76
2023/05/19 00:58:44;;;;;;;11.60;6.82;;;8.40;87.20;;;;;;6183137;22;92573;-76
2023/05/19 01:01:10;;;;;;;14.95;7.28;;;8.40;87.80;;;;;;6183754;22;94096;-76
2023/05/19 01:03:36;;;;;;;15.38;7.70;;;8.40;87.20;;;;;;6182370;22;92843;-76
2023/05/19 01:06:06;;;;;;;15.50;6.90;;;8.40;87.20;;;;;;6181895;22;93112;-75
2023/05/19 01:08:32;;;;;;;14.23;7.20;;;8.40;87.30;;;;;;6182807;22;99061;-76
2023/05/19 01:10:58;;;;;;;17.30;7.75;;;8.30;87.40;;;;;;6182768;22;94064;-76
2023/05/19 01:13:25;;;;;;;16.83;8.02;;;8.30;86.70;;;;;;6181088;22;94528;-76
2023/05/19 01:16:18;;;;;;;18.50;6.72;;;8.30;86.80;;;;;;6184133;22;92995;-75
2023/05/19 01:19:00;;;;;;;14.38;6.70;;;8.30;86.70;;;;;;6183558;22;92536;-76
2023/05/19 01:21:30;;;;;;;12.95;6.38;;;8.30;86.40;;;;;;6182631;22;92689;-76
2023/05/19 01:24:31;;;;;;;11.60;6.70;;;8.30;86.10;;;;;;6183025;22;92821;-75
2023/05/19 01:27:19;;;;;;;16.90;6.70;;;8.30;86.50;;;;;;6183072;22;92351;-76
2023/05/19 01:30:36;;;;;;;17.55;7.80;;;8.30;86.50;;;;;;6183158;22;92567;-76
2023/05/19 01:33:06;;;;;;;15.07;7.05;;;8.30;87.50;;;;;;6088859;23;93632;-76
2023/05/19 01:35:33;;;;;;;13.75;7.50;;;8.20;87.70;;;;;;6089936;23;93067;-76
2023/05/19 01:38:00;;;;;;;14.15;7.68;;;8.20;89.40;;;;;;6136516;22;92498;-75
2023/05/19 01:40:27;;;;;;;12.68;6.85;;;8.10;89.40;;;;;;6182262;22;92102;-76
2023/05/19 01:42:55;;;;;;;9.82;6.85;;;8.00;89.00;;;;;;6183073;22;94033;-76
2023/05/19 01:45:22;;;;;;;16.13;7.00;;;8.00;90.10;;;;;;6182430;22;94044;-76
2023/05/19 01:47:53;;;;;;;11.40;6.88;;;7.90;90.30;;;;;;6183508;22;92417;-76
2023/05/19 01:50:19;;;;;;;9.82;7.10;;;7.80;90.10;;;;;;6183012;22;92493;-76
2023/05/19 01:52:45;;;;;;;11.68;7.35;;;7.80;90.20;;;;;;6182485;22;93413;-75
2023/05/19 01:55:11;;;;;;;21.35;8.57;;;7.70;90.10;;;;;;6182979;22;92974;-76
2023/05/19 01:57:49;;;;;;;14.77;7.47;;;7.70;90.50;;;;;;6183558;22;92219;-75
2023/05/19 02:00:36;;;;;;;15.70;7.93;;;7.60;90.50;;;;;;6183699;22;91853;-76
2023/05/19 02:03:13;;;;;;;13.07;6.90;;;7.60;90.80;;;;;;6182953;22;92603;-76
2023/05/19 02:05:57;;;;;;;17.10;8.27;;;7.60;90.70;;;;;;6178767;22;92659;-76
2023/05/19 02:08:34;;;;;;;11.27;7.28;;;7.50;91.30;;;;;;6177825;22;93081;-76
2023/05/19 02:11:06;;;;;;;12.93;7.85;;;7.50;91.60;;;;;;6177448;22;92420;-75
2023/05/19 02:13:36;;;;;;;10.60;7.13;;;7.40;91.50;;;;;;6177635;22;92682;-75
2023/05/19 02:16:04;;;;;;;13.43;8.30;;;7.30;91.50;;;;;;6181739;22;93667;-76
2023/05/19 02:18:32;;;;;;;14.45;8.57;;;7.20;91.60;;;;;;6182310;22;92523;-75
2023/05/19 02:20:58;;;;;;;15.00;8.50;;;7.30;91.70;;;;;;6183541;22;92395;-75
2023/05/19 02:23:24;;;;;;;12.18;7.38;;;7.20;91.70;;;;;;6183791;22;93487;-76
2023/05/19 02:25:49;;;;;;;17.13;9.38;;;7.20;91.30;;;;;;6184304;22;93474;-76
2023/05/19 02:28:15;;;;;;;14.15;7.90;;;7.20;91.90;;;;;;6185172;22;92435;-75
2023/05/19 02:30:41;;;;;;;16.63;9.35;;;7.10;91.90;;;;;;6183561;22;92538;-76
2023/05/19 02:33:06;;;;;;;20.98;8.23;;;7.00;92.30;;;;;;6182860;22;94667;-75
2023/05/19 02:35:32;;;;;;;17.85;8.73;;;7.00;92.10;;;;;;6183538;22;94526;-75
2023/05/19 02:37:58;;;;;;;13.85;8.02;;;7.00;92.20;;;;;;6184411;22;92829;-76
2023/05/19 02:40:24;;;;;;;13.48;7.53;;;6.90;92.30;;;;;;6184101;22;92489;-75
2023/05/19 02:42:49;;;;;;;15.02;8.38;;;6.90;91.80;;;;;;6184061;22;92433;-75
2023/05/19 02:45:15;;;;;;;16.58;9.00;;;6.90;92.60;;;;;;6182992;22;92703;-75
2023/05/19 02:47:41;;;;;;;16.25;9.15;;;6.90;92.40;;;;;;6183232;22;93103;-75
2023/05/19 02:50:07;;;;;;;15.32;8.23;;;6.80;92.40;;;;;;6183455;22;92164;-75
2023/05/19 02:52:33;;;;;;;16.98;8.88;;;6.80;92.50;;;;;;6183504;22;92603;-76
2023/05/19 02:54:58;;;;;;;16.85;8.38;;;6.70;92.60;;;;;;6184315;22;93275;-76
2023/05/19 02:57:25;;;;;;;13.55;7.47;;;6.70;92.20;;;;;;6183102;22;93481;-75
2023/05/19 02:59:51;;;;;;;12.38;7.90;;;6.70;92.10;;;;;;6207202;22;92664;-75
2023/05/19 03:02:17;;;;;;;13.75;9.48;;;6.60;92.10;;;;;;6183869;22;92927;-76
2023/05/19 03:04:42;;;;;;;15.80;9.30;;;6.60;92.40;;;;;;6183374;22;92971;-75
2023/05/19 03:07:09;;;;;;;13.70;8.10;;;6.60;92.50;;;;;;6184380;22;92090;-75
2023/05/19 03:09:36;;;;;;;14.68;8.05;;;6.50;92.50;;;;;;6181846;22;92869;-75
2023/05/19 03:12:03;;;;;;;21.33;9.10;;;6.50;92.60;;;;;;6183707;22;93764;-75
2023/05/19 03:14:29;;;;;;;12.25;7.88;;;6.40;92.90;;;;;;6183556;22;93204;-75
2023/05/19 03:16:55;;;;;;;16.40;8.15;;;6.40;92.90;;;;;;6183697;22;92547;-75
2023/05/19 03:19:21;;;;;;;13.18;7.72;;;6.40;92.80;;;;;;6183443;22;92360;-76
2023/05/19 03:21:46;;;;;;;15.43;7.97;;;6.40;92.70;;;;;;6183898;22;94466;-75
2023/05/19 03:24:12;;;;;;;14.00;8.40;;;6.30;92.70;;;;;;6183865;22;93686;-75
2023/05/19 03:26:38;;;;;;;16.88;8.90;;;6.30;92.90;;;;;;6184170;22;92778;-75
2023/05/19 03:29:03;;;;;;;14.57;8.23;;;6.30;93.30;;;;;;6183706;22;92697;-76
2023/05/19 03:31:29;;;;;;;14.73;9.23;;;6.30;93.30;;;;;;6181818;22;93183;-75
2023/05/19 03:33:56;;;;;;;18.83;9.13;;;6.20;93.90;;;;;;6184404;22;93172;-75
2023/05/19 03:36:22;;;;;;;14.95;9.07;;;6.20;93.80;;;;;;6183737;22;92728;-75
2023/05/19 03:38:48;;;;;;;17.77;9.45;;;6.10;93.60;;;;;;6183659;22;91320;-75
2023/05/19 03:41:14;;;;;;;16.55;8.25;;;6.10;93.60;;;;;;6183730;22;93387;-75
2023/05/19 03:43:40;;;;;;;16.25;9.15;;;6.10;93.50;;;;;;6182452;22;92508;-75
2023/05/19 03:46:05;;;;;;;16.75;9.05;;;6.00;93.70;;;;;;6184428;22;93604;-76
2023/05/19 03:48:31;;;;;;;17.83;9.18;;;6.00;93.50;;;;;;6183493;22;92510;-75
2023/05/19 03:50:57;;;;;;;16.55;10.05;;;6.00;93.70;;;;;;6183260;22;93338;-76
2023/05/19 03:53:22;;;;;;;17.08;10.27;;;6.00;93.90;;;;;;6182679;22;93282;-76
2023/05/19 03:55:49;;;;;;;23.00;10.48;;;6.00;94.20;;;;;;6180865;22;92459;-76
2023/05/19 03:58:15;;;;;;;17.58;10.15;;;6.10;94.20;;;;;;6183682;22;92652;-75
2023/05/19 04:00:41;;;;;;;22.58;10.35;;;6.10;94.30;;;;;;6182018;22;93446;-75
2023/05/19 04:03:07;;;;;;;16.55;9.88;;;6.10;94.10;;;;;;6181088;22;95503;-76
2023/05/19 04:05:33;;;;;;;21.10;10.13;;;6.10;94.20;;;;;;6183810;22;92553;-75
2023/05/19 04:07:58;;;;;;;17.30;10.38;;;6.10;93.90;;;;;;6182765;22;92640;-75
2023/05/19 04:10:24;;;;;;;16.40;9.63;;;6.10;94.10;;;;;;6181689;22;94604;-76
2023/05/19 04:12:50;;;;;;;20.23;10.70;;;6.10;94.00;;;;;;6184236;22;94248;-75
2023/05/19 04:15:15;;;;;;;17.58;10.50;;;6.00;94.40;;;;;;6182787;22;92648;-75
2023/05/19 04:17:41;;;;;;;18.35;10.70;;;6.10;94.40;;;;;;6182345;22;92474;-76
2023/05/19 04:20:08;;;;;;;17.15;10.02;;;6.10;94.20;;;;;;6182348;22;92721;-76
2023/05/19 04:22:34;;;;;;;22.42;10.25;;;6.00;94.00;;;;;;6206151;22;95387;-75
2023/05/19 04:25:00;;;;;;;19.88;10.57;;;6.00;94.10;;;;;;6184255;22;92442;-75
2023/05/19 04:27:27;;;;;;;19.52;10.88;;;6.00;94.10;;;;;;6182670;22;91777;-76
2023/05/19 04:29:53;;;;;;;20.25;9.98;;;6.10;94.10;;;;;;6182116;22;93664;-75
2023/05/19 04:32:19;;;;;;;14.93;8.73;;;6.10;94.00;;;;;;6181940;22;92639;-75
2023/05/19 04:34:45;;;;;;;18.42;9.98;;;6.10;93.90;;;;;;6182433;22;93086;-75
2023/05/19 04:37:15;;;;;;;17.77;10.05;;;6.20;93.70;;;;;;6182982;22;92274;-76
2023/05/19 04:39:44;;;;;;;16.77;10.02;;;6.20;93.70;;;;;;6182168;22;93165;-75
2023/05/19 04:42:10;;;;;;;17.83;10.38;;;6.30;94.00;;;;;;6181459;22;92433;-75
2023/05/19 04:44:38;;;;;;;18.83;11.05;;;6.30;93.90;;;;;;6180960;22;92638;-75
2023/05/19 04:47:07;;;;;;;17.83;9.60;;;6.40;93.90;;;;;;6182415;22;92168;-75
2023/05/19 04:49:37;;;;;;;19.52;10.32;;;6.40;93.70;;;;;;6183283;22;93307;-76
2023/05/19 04:52:06;;;;;;;14.82;9.57;;;6.50;94.30;;;;;;6184139;22;92739;-77
2023/05/19 04:54:34;;;;;;;23.27;11.55;;;6.60;94.20;;;;;;6183785;22;92568;-76
2023/05/19 04:56:59;;;;;;;18.58;10.38;;;6.60;94.30;;;;;;6182111;22;92550;-76
2023/05/19 04:59:25;;;;;;;18.63;9.57;;;6.70;94.40;;;;;;6180549;22;94665;-75
2023/05/19 05:01:51;;;;;;;18.38;9.93;;;6.70;94.20;;;;;;6183103;22;94302;-76
2023/05/19 05:04:16;;;;;;;19.17;10.15;;;6.80;94.30;;;;;;6184565;22;92475;-76
2023/05/19 05:06:46;;;;;;;17.60;9.60;;;6.90;94.90;;;;;;6182270;22;92504;-76
2023/05/19 05:09:16;;;;;;;19.45;9.80;;;7.00;94.50;;;;;;6182776;22;93396;-76
2023/05/19 05:11:42;;;;;;;17.95;9.82;;;7.10;94.50;;;;;;6182836;22;99154;-76
2023/05/19 05:14:09;;;;;;;18.05;8.95;;;7.20;94.30;;;;;;6183517;22;92253;-76
2023/05/19 05:16:35;;;;;;;14.93;8.63;;;7.30;94.10;;;;;;6182077;22;91862;-76
2023/05/19 05:19:01;;;;;;;20.13;9.98;;;7.40;93.90;;;;;;6184161;22;93680;-76
2023/05/19 05:21:27;;;;;;;18.73;9.80;;;7.50;93.90;;;;;;6182615;22;93262;-77
2023/05/19 05:23:54;;;;;;;19.33;9.90;;;7.60;94.00;;;;;;6185111;22;93537;-81
2023/05/19 05:26:22;;;;;;;19.73;10.38;;;7.70;93.80;;;;;;6188722;22;92450;-78
2023/05/19 05:28:48;;;;;;;18.60;9.70;;;7.80;93.70;;;;;;6205891;22;96834;-78
2023/05/19 05:31:14;;;;;;;19.83;10.40;;;7.90;93.70;;;;;;6186109;22;93964;-77
2023/05/19 05:33:40;;;;;;;16.65;9.95;;;8.00;93.70;;;;;;6182666;22;92797;-76
2023/05/19 05:36:06;;;;;;;18.67;10.05;;;8.20;93.50;;;;;;6183117;22;92922;-77
2023/05/19 05:38:32;;;;;;;25.00;11.32;;;8.30;93.40;;;;;;6182518;22;93618;-77
2023/05/19 05:40:57;;;;;;;16.73;10.05;;;8.40;93.20;;;;;;6183633;22;93788;-76
2023/05/19 05:43:23;;;;;;;21.13;10.13;;;8.50;93.20;;;;;;6182610;22;92398;-76
2023/05/19 05:45:49;;;;;;;16.65;9.73;;;8.60;93.00;;;;;;6184184;22;92763;-78
2023/05/19 05:48:15;;;;;;;22.48;11.13;;;8.70;92.70;;;;;;6182941;22;94491;-75
2023/05/19 05:50:43;;;;;;;20.60;10.60;;;8.80;92.90;;;;;;6182078;22;93377;-78
2023/05/19 05:53:13;;;;;;;24.20;10.30;;;9.00;92.60;;;;;;6180756;22;92635;-78
2023/05/19 05:55:39;;;;;;;20.27;10.88;;;9.10;92.40;;;;;;6182741;22;92089;-78
2023/05/19 05:58:05;;;;;;;19.40;10.38;;;9.20;92.20;;;;;;6184301;22;94278;-78
2023/05/19 06:00:30;;;;;;;20.42;10.10;;;9.30;92.30;;;;;;6181629;22;95092;-78
2023/05/19 06:02:57;;;;;;;18.55;9.75;;;9.40;92.20;;;;;;6183900;22;92665;-78
2023/05/19 06:05:23;;;;;;;23.05;9.55;;;9.50;91.70;;;;;;6208527;22;92096;-78
2023/05/19 06:07:49;;;;;;;19.45;9.70;;;9.70;91.40;;;;;;6182201;22;95161;-78
2023/05/19 06:10:15;;;;;;;21.90;10.40;;;9.80;91.30;;;;;;6185115;22;92804;-78
2023/05/19 06:12:42;;;;;;;22.17;9.70;;;9.90;91.40;;;;;;6182985;22;93340;-78
2023/05/19 06:15:08;;;;;;;17.52;9.57;;;10.00;91.10;;;;;;6184916;22;92507;-78
2023/05/19 06:17:34;;;;;;;17.27;9.27;;;10.10;90.10;;;;;;6185947;22;93638;-78
2023/05/19 06:20:01;;;;;;;15.10;8.73;;;10.30;89.50;;;;;;6184562;22;92871;-79
2023/05/19 06:22:27;;;;;;;17.20;9.30;;;10.40;88.90;;;;;;6184951;22;94513;-79
2023/05/19 06:24:56;;;;;;;16.73;8.20;;;10.50;87.50;;;;;;6185028;22;92536;-78
2023/05/19 06:27:21;;;;;;;20.70;9.32;;;10.60;86.70;;;;;;6184396;22;93520;-78
2023/05/19 06:29:49;;;;;;;19.48;7.75;;;10.80;87.90;;;;;;6185000;22;93366;-79
2023/05/19 06:32:15;;;;;;;17.42;8.35;;;10.90;86.20;;;;;;6187840;22;92402;-79
2023/05/19 06:34:40;;;;;;;16.27;8.70;;;11.10;87.30;;;;;;6208658;22;92433;-79
2023/05/19 06:37:06;;;;;;;17.63;8.27;;;11.30;87.30;;;;;;6209242;22;96928;-79
2023/05/19 06:39:32;;;;;;;18.73;8.18;;;11.40;86.00;;;;;;6184829;22;94767;-79
2023/05/19 06:41:57;;;;;;;13.57;7.68;;;11.60;84.50;;;;;;6184251;22;93218;-80
2023/05/19 06:44:23;;;;;;;20.00;9.15;;;11.80;82.70;;;;;;6183581;22;92695;-79
2023/05/19 06:46:49;;;;;;;20.98;7.82;;;12.00;84.40;;;;;;6182711;22;96772;-77
2023/05/19 06:49:14;;;;;;;19.10;8.50;;;12.10;83.50;;;;;;6185025;22;92606;-78
2023/05/19 06:51:40;;;;;;;17.33;7.60;;;12.20;84.00;;;;;;6183316;22;92377;-78
2023/05/19 06:54:06;;;;;;;17.52;7.10;;;12.40;83.10;;;;;;6170211;22;91289;-78
2023/05/19 06:56:31;;;;;;;13.18;6.80;;;12.50;82.50;;;;;;6181402;22;94057;-78
2023/05/19 06:58:57;;;;;;;13.57;6.70;;;12.70;81.50;;;;;;6182008;22;96869;-78
2023/05/19 07:01:25;;;;;;;16.60;8.48;;;12.80;81.10;;;;;;6183578;22;93160;-78
2023/05/19 07:03:50;;;;;;;26.38;6.53;;;13.00;79.90;;;;;;6183425;22;92642;-77
2023/05/19 07:06:16;;;;;;;17.08;6.53;;;13.10;80.30;;;;;;6182708;22;93183;-77
2023/05/19 07:08:42;;;;;;;15.43;7.07;;;13.20;78.00;;;;;;6183064;22;92634;-77
2023/05/19 07:11:08;;;;;;;16.40;7.47;;;13.40;76.80;;;;;;6207487;22;92560;-77
2023/05/19 07:13:34;;;;;;;14.05;6.18;;;13.60;76.90;;;;;;6183577;22;92539;-77
2023/05/19 07:15:59;;;;;;;17.73;6.10;;;13.80;75.50;;;;;;6183617;22;93792;-76
2023/05/19 07:18:25;;;;;;;11.98;6.18;;;14.00;76.50;;;;;;6181781;22;97351;-77
2023/05/19 07:20:52;;;;;;;12.05;6.25;;;14.10;75.10;;;;;;6182860;22;91980;-77
2023/05/19 07:23:18;;;;;;;13.90;6.38;;;14.30;75.50;;;;;;6185226;22;92593;-77
2023/05/19 07:25:44;;;;;;;11.25;5.85;;;14.40;73.40;;;;;;6180875;22;94962;-78
2023/05/19 07:28:09;;;;;;;11.93;5.05;;;14.60;73.60;;;;;;6183776;22;93760;-78
2023/05/19 07:30:35;;;;;;;14.27;5.57;;;14.70;73.80;;;;;;6183706;22;92632;-78
2023/05/19 07:33:00;;;;;;;8.98;5.10;;;15.00;73.30;;;;;;6208371;22;92195;-78
2023/05/19 07:35:26;;;;;;;10.75;5.25;;;15.20;73.30;;;;;;6182363;22;94328;-78
2023/05/19 07:37:53;;;;;;;12.98;5.72;;;15.30;72.50;;;;;;6190690;22;92828;-80
2023/05/19 07:40:19;;;;;;;11.40;5.70;;;15.60;70.40;;;;;;6186546;22;92303;-80
2023/05/19 07:42:44;;;;;;;14.15;4.70;;;15.70;71.10;;;;;;6186771;22;91823;-79
2023/05/19 07:45:10;;;;;;;10.77;4.70;;;15.90;69.50;;;;;;6207243;22;96073;-80
2023/05/19 07:47:36;;;;;;;10.40;4.15;;;16.10;68.30;;;;;;6182731;22;93334;-79
2023/05/19 07:50:03;;;;;;;12.55;4.55;;;16.30;67.90;;;;;;6181500;22;93847;-80
2023/05/19 07:52:28;;;;;;;14.90;4.78;;;16.50;68.20;;;;;;6182965;22;92367;-77
2023/05/19 07:54:54;;;;;;;9.23;4.10;;;16.70;65.30;;;;;;6183335;22;94008;-78
2023/05/19 07:57:20;;;;;;;24.17;4.43;;;16.80;66.50;;;;;;6181685;22;93105;-80
2023/05/19 07:59:46;;;;;;;10.20;3.58;;;17.00;64.00;;;;;;6182566;22;92426;-78
2023/05/19 08:02:11;;;;;;;7.55;3.20;;;17.10;64.60;;;;;;6183078;22;92109;-77
2023/05/19 08:04:37;;;;;;;7.95;3.50;;;17.30;64.50;;;;;;6182601;22;93985;-77
2023/05/19 08:07:03;;;;;;;11.00;3.30;;;17.50;63.40;;;;;;6208596;22;95387;-81
2023/05/19 08:09:31;;;;;;;8.77;3.28;;;17.60;61.40;;;;;;6183625;22;92376;-80
2023/05/19 08:11:57;;;;;;;8.73;2.42;;;17.60;62.20;;;;;;6183309;22;92905;-80
2023/05/19 08:14:22;;;;;;;6.82;2.45;;;17.70;60.40;;;;;;6179412;22;97380;-81
2023/05/19 08:16:49;;;;;;;8.95;2.45;;;17.90;60.90;;;;;;6180621;22;97408;-80
2023/05/19 08:19:14;;;;;;;8.25;1.92;;;18.00;59.10;;;;;;6182797;22;92362;-81
2023/05/19 08:21:41;;;;;;;13.05;2.38;;;18.20;60.90;;;;;;6180639;22;92650;-80
2023/05/19 08:24:07;;;;;;;10.98;2.40;;;18.40;60.40;;;;;;6180467;22;95386;-79
2023/05/19 08:26:33;;;;;;;8.10;2.47;;;18.60;58.20;;;;;;6181437;22;94279;-79
2023/05/19 08:28:59;;;;;;;8.02;2.55;;;18.70;56.90;;;;;;6181645;22;92803;-80
2023/05/19 08:31:25;;;;;;;6.40;2.15;;;18.90;58.00;;;;;;6181255;22;91495;-81
2023/05/19 08:33:50;;;;;;;10.80;2.67;;;19.10;56.00;;;;;;6181993;22;93639;-79
2023/05/19 08:36:16;;;;;;;5.47;2.22;;;19.10;54.60;;;;;;6182366;22;92899;-80
2023/05/19 08:38:42;;;;;;;5.80;1.60;;;19.20;57.60;;;;;;6182265;22;93617;-80
2023/05/19 08:41:08;;;;;;;7.45;1.73;;;19.30;52.30;;;;;;6181000;22;92803;-79
2023/05/19 08:43:34;;;;;;;8.15;2.08;;;19.30;54.50;;;;;;6179897;22;96834;-79
2023/05/19 08:45:59;;;;;;;6.72;1.83;;;19.30;52.70;;;;;;6182136;22;96110;-79
2023/05/19 08:48:32;;;;;;;6.43;1.48;;;19.30;50.50;;;;;;6177771;22;92502;-79
2023/05/19 08:51:11;;;;;;;9.73;1.70;;;19.30;53.10;;;;;;6176384;22;92706;-80
2023/05/19 08:53:42;;;;;;;8.65;1.75;;;19.70;54.70;;;;;;6176386;22;97015;-79
2023/05/19 08:56:15;;;;;;;9.35;2.00;;;19.90;52.40;;;;;;6176519;22;96364;-78
2023/05/19 08:58:42;;;;;;;4.40;1.30;;;20.00;52.00;;;;;;6178448;22;92754;-79
2023/05/19 09:01:17;;;;;;;5.57;1.50;;;20.10;53.30;;;;;;6183081;22;92539;-80
2023/05/19 09:03:44;;;;;;;4.20;1.38;;;20.40;52.10;;;;;;6181447;22;98894;-79
2023/05/19 09:06:13;;;;;;;8.63;1.70;;;20.50;51.70;;;;;;6180603;22;97572;-78
2023/05/19 09:08:41;;;;;;;7.85;1.83;;;20.60;50.40;;;;;;6180517;22;92625;-78
2023/05/19 09:11:10;;;;;;;5.13;1.48;;;20.40;49.10;;;;;;6180541;22;92674;-78
2023/05/19 09:13:36;;;;;;;6.25;1.80;;;20.60;49.80;;;;;;6179766;22;95150;-81
2023/05/19 09:16:02;;;;;;;10.02;2.15;;;20.80;48.60;;;;;;6181320;22;96426;-78
2023/05/19 09:18:28;;;;;;;6.20;1.70;;;21.00;47.90;;;;;;6206990;22;92514;-76
2023/05/19 09:21:01;;;;;;;6.82;1.70;;;21.00;47.80;;;;;;6179665;22;91891;-78
2023/05/19 09:23:34;;;;;;;5.50;1.80;;;21.20;48.30;;;;;;6182199;22;93964;-78
2023/05/19 09:26:03;;;;;;;5.45;1.50;;;21.40;48.80;;;;;;6180574;22;95803;-78
2023/05/19 09:28:34;;;;;;;7.50;1.85;;;21.60;45.90;;;;;;6180368;22;93649;-79
2023/05/19 09:31:08;;;;;;;4.88;1.60;;;21.80;47.30;;;;;;6182413;22;92737;-78
2023/05/19 09:33:35;;;;;;;7.47;1.52;;;21.90;47.90;;;;;;6181604;22;93111;-78
2023/05/19 09:36:04;;;;;;;7.47;1.73;;;21.90;49.00;;;;;;6179558;22;95078;-78
2023/05/19 09:38:31;;;;;;;4.85;1.38;;;22.00;48.30;;;;;;6182684;22;92347;-76
2023/05/19 09:40:57;;;;;;;6.35;1.42;;;22.20;48.20;;;;;;6181533;22;92613;-76
2023/05/19 09:43:26;;;;;;;5.78;1.38;;;22.20;44.50;;;;;;6181193;22;93998;-76
2023/05/19 09:46:10;;;;;;;7.03;1.80;;;22.30;46.30;;;;;;6182162;22;95241;-87
2023/05/19 09:48:36;;;;;;;7.00;1.63;;;22.10;45.80;;;;;;6182405;22;92436;-75
2023/05/19 09:51:04;;;;;;;9.18;1.50;;;22.10;46.50;;;;;;6180752;22;93751;-77
2023/05/19 09:53:31;;;;;;;8.65;1.67;;;22.30;47.00;;;;;;6179673;22;97961;-74
2023/05/19 09:55:57;;;;;;;8.48;1.70;;;22.50;45.60;;;;;;6180023;22;95848;-75
2023/05/19 09:58:25;;;;;;;8.45;2.13;;;22.60;45.20;;;;;;6183028;22;92572;-75
2023/05/19 10:00:53;;;;;;;6.40;2.00;;;22.70;45.20;;;;;;6182808;22;92401;-77
2023/05/19 10:03:21;;;;;;;10.90;2.40;;;22.80;44.50;;;;;;6179065;22;95188;-78
2023/05/19 10:05:48;;;;;;;13.25;2.08;;;22.90;44.70;;;;;;6182411;22;93018;-77
2023/05/19 10:08:16;;;;;;;5.57;2.00;;;23.20;45.60;;;;;;6182601;22;92232;-77
2023/05/19 10:10:45;;;;;;;5.97;1.50;;;23.30;47.10;;;;;;6183094;22;91699;-77
2023/05/19 10:13:12;;;;;;;7.82;1.77;;;23.60;46.40;;;;;;6182730;22;93498;-77
2023/05/19 10:15:41;;;;;;;13.20;1.70;;;23.60;42.90;;;;;;6181907;22;93010;-78
2023/05/19 10:18:09;;;;;;;3.95;1.52;;;23.50;42.40;;;;;;6182267;22;93505;-77
2023/05/19 10:20:35;;;;;;;5.90;1.65;;;23.40;43.80;;;;;;6182072;22;92584;-78
2023/05/19 10:23:01;;;;;;;7.18;1.85;;;23.60;45.90;;;;;;6180123;22;96686;-78
2023/05/19 10:25:29;;;;;;;5.65;1.65;;;23.70;44.90;;;;;;6181914;22;92355;-77
2023/05/19 10:28:06;;;;;;;7.97;1.52;;;23.50;43.60;;;;;;6181615;22;92450;-78
2023/05/19 10:30:39;;;;;;;8.30;1.85;;;23.60;42.80;;;;;;6180461;22;92686;-77
2023/05/19 10:33:06;;;;;;;;;;;23.70;44.00;;;;;;6179947;22;95633;-77
2023/05/19 10:36:07;;;;;;;6.53;1.33;;;23.80;44.00;;;;;;6183709;22;92794;-77
2023/05/19 10:38:44;;;;;;;9.02;2.03;;;23.50;44.90;;;;;;6182973;22;92347;-77
2023/05/19 10:41:25;;;;;;;6.93;1.95;;;23.50;44.10;;;;;;6182027;22;92493;-77
2023/05/19 10:44:25;;;;;;;6.40;1.55;;;23.90;45.10;;;;;;6182043;22;94079;-77
2023/05/19 10:46:51;;;;;;;7.15;1.83;;;24.50;45.00;;;;;;6181798;22;96956;-77
2023/05/19 10:49:21;;;;;;;11.05;1.73;;;25.00;43.70;;;;;;6184245;22;92498;-78
2023/05/19 10:51:47;;;;;;;7.20;1.60;;;25.00;40.40;;;;;;6184705;22;92059;-77
2023/05/19 10:54:15;;;;;;;6.88;2.08;;;25.00;42.20;;;;;;6183349;22;92206;-77
2023/05/19 10:56:46;;;;;;;7.47;1.67;;;25.30;42.80;;;;;;6182661;22;92702;-77
2023/05/19 10:59:31;;;;;;;6.45;1.65;;;25.60;43.50;;;;;;6183814;22;92568;-77
2023/05/19 11:02:01;;;;;;;12.77;3.00;;;26.00;42.40;;;;;;6182062;22;94835;-77
2023/05/19 11:04:46;;;;;;;5.63;2.15;;;26.20;41.20;;;;;;6181823;22;96745;-77
2023/05/19 11:07:18;;;;;;;4.60;1.90;;;26.40;42.90;;;;;;6184814;22;92530;-78
2023/05/19 11:09:49;;;;;;;7.97;2.50;;;26.50;40.20;;;;;;6183354;22;93274;-77
2023/05/19 11:12:20;;;;;;;10.90;2.00;;;26.40;41.30;;;;;;6183748;22;92431;-78
2023/05/19 11:14:46;;;;;;;5.53;2.00;;;26.70;40.40;;;;;;6181737;22;95043;-77
2023/05/19 11:17:14;;;;;;;5.55;1.70;;;26.90;40.30;;;;;;6183434;22;93029;-78
2023/05/19 11:19:52;;;;;;;7.63;2.30;;;27.20;41.00;;;;;;6181538;22;92841;-78
2023/05/19 11:22:25;;;;;;;8.88;2.10;;;26.90;39.90;;;;;;6182139;22;92554;-78
2023/05/19 11:24:53;;;;;;;9.27;2.40;;;26.20;40.50;;;;;;6184091;22;93538;-77
2023/05/19 11:27:30;;;;;;;8.27;1.77;;;26.00;41.10;;;;;;6181777;22;94913;-78
2023/05/19 11:30:13;;;;;;;6.38;1.70;;;26.20;41.60;;;;;;6181864;22;92876;-77
2023/05/19 11:32:41;;;;;;;4.13;1.52;;;26.60;41.20;;;;;;6183426;22;92439;-77
2023/05/19 11:35:08;;;;;;;8.63;2.10;;;27.00;39.20;;;;;;6179973;22;97725;-77
2023/05/19 11:37:34;;;;;;;7.50;1.95;;;27.00;36.90;;;;;;6183083;22;94336;-77
2023/05/19 11:40:03;;;;;;;6.25;2.05;;;26.60;39.10;;;;;;6184625;22;92660;-77
2023/05/19 11:42:30;;;;;;;5.82;1.90;;;26.60;39.00;;;;;;6181881;22;92163;-78
2023/05/19 11:44:55;;;;;;;5.88;2.10;;;26.90;40.40;;;;;;6182849;22;93196;-77
2023/05/19 11:47:21;;;;;;;11.07;2.35;;;27.20;37.80;;;;;;6183235;22;93580;-77
2023/05/19 11:49:47;;;;;;;8.25;1.98;;;27.70;37.80;;;;;;6182863;22;92992;-77
2023/05/19 11:52:13;;;;;;;5.85;1.95;;;27.90;40.70;;;;;;6184223;22;92390;-77
2023/05/19 11:54:41;;;;;;;10.73;2.20;;;28.20;38.10;;;;;;6181219;22;96280;-77
2023/05/19 11:57:09;;;;;;;7.25;1.80;;;28.00;37.70;;;;;;6182710;22;92759;-78
2023/05/19 11:59:38;;;;;;;5.03;1.83;;;28.00;39.10;;;;;;6180948;22;93408;-78
2023/05/19 12:02:24;;;;;;;11.93;2.40;;;28.20;39.10;;;;;;6183497;22;92776;-78
2023/05/19 12:04:51;;;;;;;4.97;1.63;;;28.10;37.00;;;;;;6181387;22;97301;-77
2023/05/19 12:07:21;;;;;;;7.72;1.80;;;27.70;36.60;;;;;;6183884;22;93178;-78
2023/05/19 12:09:47;;;;;;;6.55;2.10;;;27.80;39.40;;;;;;6183836;22;92456;-77
2023/05/19 12:12:21;;;;;;;5.97;1.70;;;27.90;37.80;;;;;;6183188;22;92204;-77
2023/05/19 12:14:49;;;;;;;8.15;2.20;;;27.90;38.30;;;;;;6183089;22;93093;-77
2023/05/19 12:17:18;;;;;;;9.55;1.92;;;28.30;36.60;;;;;;6183128;22;93271;-77
2023/05/19 12:19:45;;;;;;;8.52;2.10;;;28.20;38.60;;;;;;6183240;22;92280;-77
2023/05/19 12:22:12;;;;;;;10.32;2.40;;;28.20;38.60;;;;;;6182997;22;92526;-78
2023/05/19 12:24:38;;;;;;;6.15;2.03;;;28.30;37.80;;;;;;6182318;22;94000;-77
2023/05/19 12:27:22;;;;;;;4.03;1.75;;;28.70;38.00;;;;;;6181011;22;97620;-77
2023/05/19 12:29:56;;;;;;;5.32;1.95;;;28.90;37.10;;;;;;6169219;22;92206;-77
2023/05/19 12:32:27;;;;;;;6.78;1.65;;;29.40;36.10;;;;;;6181375;22;92761;-77
2023/05/19 12:34:55;;;;;;;5.40;1.83;;;29.50;35.70;;;;;;6182253;22;93861;-75
2023/05/19 12:37:21;;;;;;;7.35;2.17;;;29.40;35.60;;;;;;6183066;22;93480;-75
2023/05/19 12:39:50;;;;;;;5.65;1.88;;;29.40;35.30;;;;;;6184670;22;92161;-75
2023/05/19 12:42:15;;;;;;;7.32;2.20;;;28.70;35.90;;;;;;6182753;22;91648;-75
2023/05/19 12:44:47;;;;;;;3.28;1.60;;;28.40;36.90;;;;;;6180362;22;96499;-75
2023/05/19 12:47:14;;;;;;;5.90;1.85;;;28.50;36.30;;;;;;6182862;22;93072;-77